createdAt,value
2023-01-08T00:00:02.286Z,4.30
2023-01-08T00:01:02.343Z,4.34
2023-01-08T00:02:03.038Z,4.41
2023-01-08T00:03:02.042Z,4.49
2023-01-08T00:04:01.987Z,4.54
2023-01-08T00:05:01.770Z,4.59
2023-01-08T00:06:01.819Z,4.66
2023-01-08T00:07:04.569Z,4.70
2023-01-08T00:08:02.248Z,4.72
2023-01-08T00:09:01.830Z,4.74
2023-01-08T00:10:01.698Z,4.75
2023-01-08T00:11:01.822Z,4.75
2023-01-08T00:12:01.678Z,4.76
2023-01-08T00:13:01.804Z,4.78
2023-01-08T00:14:01.667Z,4.80
2023-01-08T00:15:22.807Z,4.81
2023-01-08T00:16:01.645Z,4.82
2023-01-08T00:17:01.811Z,4.85
2023-01-08T00:18:01.606Z,4.88
2023-01-08T00:19:01.764Z,4.91
2023-01-08T00:20:02.096Z,4.95
2023-01-08T00:21:01.679Z,4.97
2023-01-08T00:22:01.550Z,4.98
2023-01-08T00:23:01.676Z,4.99
2023-01-08T00:24:01.513Z,4.99
2023-01-08T00:25:01.717Z,4.99
2023-01-08T00:26:01.510Z,4.99
2023-01-08T00:27:03.661Z,5.00
2023-01-08T00:28:01.459Z,5.02
2023-01-08T00:29:01.624Z,5.04
2023-01-08T00:30:01.446Z,5.05
2023-01-08T00:31:03.443Z,5.06
2023-01-08T00:32:01.452Z,5.08
2023-01-08T00:33:01.561Z,5.09
2023-01-08T00:34:01.387Z,5.10
2023-01-08T00:35:01.586Z,5.10
2023-01-08T00:36:01.361Z,5.10
2023-01-08T00:37:01.417Z,5.10
2023-01-08T00:38:01.358Z,5.10
2023-01-08T00:39:01.456Z,5.11
2023-01-08T00:40:01.306Z,5.13
2023-01-08T00:41:01.340Z,5.15
2023-01-08T00:42:01.273Z,5.17
2023-01-08T00:43:01.433Z,5.18
2023-01-08T00:44:01.274Z,5.19
2023-01-08T00:45:01.354Z,5.20
2023-01-08T00:46:01.286Z,5.20
2023-01-08T00:47:01.286Z,5.20
2023-01-08T00:48:01.207Z,5.22
2023-01-08T00:49:01.345Z,5.22
2023-01-08T00:50:01.185Z,5.22
2023-01-08T00:51:01.263Z,5.23
2023-01-08T00:52:01.147Z,5.23
2023-01-08T00:53:01.298Z,5.23
2023-01-08T00:54:01.115Z,5.22
2023-01-08T00:55:01.275Z,5.23
2023-01-08T00:56:01.109Z,5.23
2023-01-08T00:57:24.216Z,5.23
2023-01-08T00:58:01.064Z,5.22
2023-01-08T00:59:01.238Z,5.23
2023-01-08T01:00:01.041Z,5.24
2023-01-08T01:01:01.204Z,5.25
2023-01-08T01:02:01.208Z,5.24
2023-01-08T01:03:01.182Z,5.26
2023-01-08T01:04:01.017Z,5.27
2023-01-08T01:05:01.104Z,5.29
2023-01-08T01:06:00.954Z,5.30
2023-01-08T01:07:01.054Z,5.30
2023-01-08T01:08:00.966Z,5.32
2023-01-08T01:09:01.090Z,5.35
2023-01-08T01:10:00.910Z,5.37
2023-01-08T01:11:00.932Z,5.39
2023-01-08T01:12:00.874Z,5.42
2023-01-08T01:13:01.076Z,5.44
2023-01-08T01:14:00.874Z,5.46
2023-01-08T01:15:00.888Z,5.48
2023-01-08T01:16:00.838Z,5.49
2023-01-08T01:17:00.979Z,5.50
2023-01-08T01:18:00.794Z,5.51
2023-01-08T01:19:00.971Z,5.53
2023-01-08T01:20:00.801Z,5.54
2023-01-08T01:21:02.989Z,5.53
2023-01-08T01:22:00.744Z,5.50
2023-01-08T01:23:00.823Z,5.50
2023-01-08T01:24:00.733Z,5.50
2023-01-08T01:25:00.861Z,5.50
2023-01-08T01:26:00.714Z,5.50
2023-01-08T01:27:23.811Z,5.52
2023-01-08T01:28:00.671Z,5.53
2023-01-08T01:29:00.834Z,5.55
2023-01-08T01:30:00.657Z,5.56
2023-01-08T01:31:00.819Z,5.58
2023-01-08T01:32:00.641Z,5.59
2023-01-08T01:33:00.671Z,5.60
2023-01-08T01:34:00.586Z,5.60
2023-01-08T01:35:00.740Z,5.60
2023-01-08T01:36:00.563Z,5.60
2023-01-08T01:37:00.671Z,5.59
2023-01-08T01:38:00.556Z,5.60
2023-01-08T01:39:01.635Z,5.64
2023-01-08T01:40:00.510Z,5.67
2023-01-08T01:41:00.538Z,5.67
2023-01-08T01:42:00.486Z,5.68
2023-01-08T01:43:00.569Z,5.71
2023-01-08T01:44:00.469Z,5.75
2023-01-08T01:45:00.519Z,5.77
2023-01-08T01:46:00.499Z,5.76
2023-01-08T01:47:00.554Z,5.75
2023-01-08T01:48:00.406Z,5.73
2023-01-08T01:49:00.588Z,5.70
2023-01-08T01:50:00.401Z,5.66
2023-01-08T01:51:00.420Z,5.64
2023-01-08T01:52:00.338Z,5.61
2023-01-08T01:53:00.467Z,5.61
2023-01-08T01:54:00.316Z,5.63
2023-01-08T01:55:00.328Z,5.65
2023-01-08T01:56:00.340Z,5.67
2023-01-08T01:57:00.439Z,5.69
2023-01-08T01:58:00.264Z,5.70
2023-01-08T01:59:00.360Z,5.72
2023-01-08T02:00:00.242Z,5.73
2023-01-08T02:01:00.307Z,5.70
2023-01-08T02:02:00.418Z,5.69
2023-01-08T02:03:00.338Z,5.69
2023-01-08T02:04:00.284Z,5.68
2023-01-08T02:05:00.267Z,5.69
2023-01-08T02:06:00.163Z,5.71
2023-01-08T02:07:01.363Z,5.72
2023-01-08T02:08:00.150Z,5.73
2023-01-08T02:09:00.235Z,5.75
2023-01-08T02:10:00.168Z,5.76
2023-01-08T02:11:00.147Z,5.76
2023-01-08T02:12:00.102Z,5.74
2023-01-08T02:13:01.235Z,5.71
2023-01-08T02:14:00.115Z,5.71
2023-01-08T02:15:00.148Z,5.71
2023-01-08T02:16:00.033Z,5.71
2023-01-08T02:17:00.284Z,5.72
2023-01-08T02:17:59.996Z,5.73
2023-01-08T02:19:00.109Z,5.72
2023-01-08T02:19:59.978Z,5.71
2023-01-08T02:21:00.052Z,5.71
2023-01-08T02:21:59.952Z,5.72
2023-01-08T02:23:01.118Z,5.71
2023-01-08T02:23:59.920Z,5.68
2023-01-08T02:24:59.926Z,5.68
2023-01-08T02:25:59.926Z,5.68
2023-01-08T02:26:59.955Z,5.67
2023-01-08T02:27:59.871Z,5.66
2023-01-08T02:29:20.985Z,5.66
2023-01-08T02:29:59.836Z,5.65
2023-01-08T02:31:02.101Z,5.64
2023-01-08T02:31:59.831Z,5.63
2023-01-08T02:32:59.957Z,5.61
2023-01-08T02:33:59.791Z,5.60
2023-01-08T02:34:59.907Z,5.60
2023-01-08T02:35:59.762Z,5.63
2023-01-08T02:36:59.832Z,5.67
2023-01-08T02:37:59.755Z,5.72
2023-01-08T02:38:59.865Z,5.74
2023-01-08T02:39:59.708Z,5.74
2023-01-08T02:40:59.795Z,5.72
2023-01-08T02:41:59.684Z,5.69
2023-01-08T02:43:01.843Z,5.67
2023-01-08T02:43:59.672Z,5.68
2023-01-08T02:44:59.671Z,5.69
2023-01-08T02:45:59.656Z,5.69
2023-01-08T02:47:00.722Z,5.71
2023-01-08T02:47:59.606Z,5.71
2023-01-08T02:48:59.744Z,5.72
2023-01-08T02:49:59.606Z,5.72
2023-01-08T02:50:59.682Z,5.72
2023-01-08T02:51:59.543Z,5.71
2023-01-08T02:52:59.716Z,5.72
2023-01-08T02:53:59.513Z,5.75
2023-01-08T02:54:59.534Z,5.76
2023-01-08T02:55:59.505Z,5.78
2023-01-08T02:56:59.574Z,5.79
2023-01-08T02:57:59.467Z,5.81
2023-01-08T02:58:59.621Z,5.84
2023-01-08T02:59:59.439Z,5.84
2023-01-08T03:00:59.609Z,5.83
2023-01-08T03:01:59.559Z,5.82
2023-01-08T03:02:59.586Z,5.81
2023-01-08T03:03:59.466Z,5.80
2023-01-08T03:04:59.424Z,5.78
2023-01-08T03:05:59.362Z,5.77
2023-01-08T03:06:59.452Z,5.75
2023-01-08T03:07:59.356Z,5.75
2023-01-08T03:08:59.492Z,5.76
2023-01-08T03:09:59.314Z,5.76
2023-01-08T03:11:00.450Z,5.79
2023-01-08T03:11:59.282Z,5.82
2023-01-08T03:12:59.363Z,5.83
2023-01-08T03:13:59.271Z,5.82
2023-01-08T03:14:59.290Z,5.78
2023-01-08T03:15:59.223Z,5.77
2023-01-08T03:16:59.359Z,5.78
2023-01-08T03:17:59.207Z,5.77
2023-01-08T03:18:59.370Z,5.77
2023-01-08T03:19:59.192Z,5.77
2023-01-08T03:20:59.304Z,5.76
2023-01-08T03:21:59.141Z,5.76
2023-01-08T03:22:59.240Z,5.74
2023-01-08T03:23:59.133Z,5.74
2023-01-08T03:24:59.132Z,5.74
2023-01-08T03:25:59.120Z,5.74
2023-01-08T03:27:00.237Z,5.73
2023-01-08T03:27:59.073Z,5.73
2023-01-08T03:28:59.258Z,5.73
2023-01-08T03:29:59.043Z,5.74
2023-01-08T03:30:59.254Z,5.73
2023-01-08T03:31:59.032Z,5.73
2023-01-08T03:33:00.139Z,5.72
2023-01-08T03:33:58.982Z,5.72
2023-01-08T03:34:59.053Z,5.72
2023-01-08T03:35:58.963Z,5.73
2023-01-08T03:36:59.091Z,5.72
2023-01-08T03:37:58.973Z,5.72
2023-01-08T03:38:59.122Z,5.72
2023-01-08T03:39:58.915Z,5.72
2023-01-08T03:40:58.950Z,5.73
2023-01-08T03:41:58.878Z,5.72
2023-01-08T03:42:58.989Z,5.72
2023-01-08T03:43:58.870Z,5.71
2023-01-08T03:44:58.940Z,5.69
2023-01-08T03:45:58.910Z,5.67
2023-01-08T03:46:58.960Z,5.66
2023-01-08T03:47:58.808Z,5.68
2023-01-08T03:48:59.012Z,5.69
2023-01-08T03:49:58.827Z,5.70
2023-01-08T03:50:58.829Z,5.71
2023-01-08T03:51:58.753Z,5.70
2023-01-08T03:53:00.767Z,5.70
2023-01-08T03:53:58.730Z,5.71
2023-01-08T03:54:58.745Z,5.70
2023-01-08T03:55:58.719Z,5.70
2023-01-08T03:56:58.844Z,5.69
2023-01-08T03:57:58.683Z,5.69
2023-01-08T03:58:58.776Z,5.70
2023-01-08T03:59:58.639Z,5.69
2023-01-08T04:01:23.050Z,5.67
2023-01-08T04:01:58.710Z,5.68
2023-01-08T04:02:58.747Z,5.68
2023-01-08T04:03:58.632Z,5.66
2023-01-08T04:04:58.788Z,5.64
2023-01-08T04:05:58.562Z,5.61
2023-01-08T04:06:58.769Z,5.60
2023-01-08T04:07:58.530Z,5.61
2023-01-08T04:08:58.658Z,5.63
2023-01-08T04:09:58.508Z,5.63
2023-01-08T04:10:58.597Z,5.64
2023-01-08T04:11:58.491Z,5.63
2023-01-08T04:12:58.593Z,5.60
2023-01-08T04:13:58.529Z,5.58
2023-01-08T04:14:58.551Z,5.56
2023-01-08T04:15:58.519Z,5.56
2023-01-08T04:16:58.601Z,5.57
2023-01-08T04:17:58.397Z,5.58
2023-01-08T04:18:58.489Z,5.57
2023-01-08T04:19:58.367Z,5.56
2023-01-08T04:20:58.459Z,5.55
2023-01-08T04:21:58.348Z,5.54
2023-01-08T04:22:58.503Z,5.55
2023-01-08T04:23:58.320Z,5.56
2023-01-08T04:24:58.476Z,5.57
2023-01-08T04:25:58.291Z,5.60
2023-01-08T04:26:58.370Z,5.61
2023-01-08T04:27:58.267Z,5.58
2023-01-08T04:28:58.408Z,5.56
2023-01-08T04:29:58.237Z,5.55
2023-01-08T04:30:58.448Z,5.53
2023-01-08T04:31:58.207Z,5.50
2023-01-08T04:32:58.373Z,5.48
2023-01-08T04:33:58.191Z,5.47
2023-01-08T04:34:58.312Z,5.51
2023-01-08T04:35:58.155Z,5.54
2023-01-08T04:36:58.311Z,5.55
2023-01-08T04:37:58.138Z,5.54
2023-01-08T04:38:59.203Z,5.53
2023-01-08T04:39:58.106Z,5.51
2023-01-08T04:40:58.206Z,5.51
2023-01-08T04:41:58.088Z,5.53
2023-01-08T04:42:58.197Z,5.56
2023-01-08T04:43:58.073Z,5.57
2023-01-08T04:44:58.188Z,5.57
2023-01-08T04:45:58.062Z,5.57
2023-01-08T04:46:59.137Z,5.57
2023-01-08T04:47:58.006Z,5.58
2023-01-08T04:48:58.106Z,5.57
2023-01-08T04:49:57.977Z,5.55
2023-01-08T04:50:58.017Z,5.54
2023-01-08T04:51:57.947Z,5.55
2023-01-08T04:52:58.124Z,5.55
2023-01-08T04:53:57.920Z,5.55
2023-01-08T04:54:58.017Z,5.55
2023-01-08T04:55:57.911Z,5.55
2023-01-08T04:56:57.996Z,5.55
2023-01-08T04:57:57.866Z,5.54
2023-01-08T04:58:58.032Z,5.52
2023-01-08T04:59:57.837Z,5.49
2023-01-08T05:00:59.060Z,5.48
2023-01-08T05:01:57.868Z,5.47
2023-01-08T05:02:58.165Z,5.48
2023-01-08T05:03:57.782Z,5.50
2023-01-08T05:04:57.820Z,5.51
2023-01-08T05:05:57.764Z,5.52
2023-01-08T05:06:57.946Z,5.53
2023-01-08T05:07:57.736Z,5.52
2023-01-08T05:08:57.805Z,5.49
2023-01-08T05:09:57.704Z,5.48
2023-01-08T05:10:57.755Z,5.46
2023-01-08T05:11:57.685Z,5.47
2023-01-08T05:12:57.731Z,5.48
2023-01-08T05:13:57.654Z,5.49
2023-01-08T05:14:57.715Z,5.50
2023-01-08T05:15:57.668Z,5.50
2023-01-08T05:16:57.767Z,5.51
2023-01-08T05:17:57.605Z,5.51
2023-01-08T05:18:57.734Z,5.51
2023-01-08T05:19:57.582Z,5.52
2023-01-08T05:20:57.731Z,5.53
2023-01-08T05:21:57.552Z,5.56
2023-01-08T05:22:57.656Z,5.58
2023-01-08T05:23:57.514Z,5.61
2023-01-08T05:24:57.638Z,5.63
2023-01-08T05:25:57.494Z,5.67
2023-01-08T05:26:57.622Z,5.68
2023-01-08T05:27:57.473Z,5.67
2023-01-08T05:28:57.556Z,5.67
2023-01-08T05:29:57.469Z,5.66
2023-01-08T05:30:57.724Z,5.63
2023-01-08T05:31:57.411Z,5.61
2023-01-08T05:32:57.539Z,5.59
2023-01-08T05:33:57.390Z,5.58
2023-01-08T05:34:57.476Z,5.58
2023-01-08T05:35:57.382Z,5.59
2023-01-08T05:36:58.472Z,5.60
2023-01-08T05:37:57.341Z,5.59
2023-01-08T05:38:57.434Z,5.59
2023-01-08T05:39:57.323Z,5.58
2023-01-08T05:40:57.389Z,5.60
2023-01-08T05:41:57.288Z,5.61
2023-01-08T05:42:57.366Z,5.60
2023-01-08T05:43:57.264Z,5.59
2023-01-08T05:44:57.344Z,5.59
2023-01-08T05:45:57.274Z,5.59
2023-01-08T05:46:57.388Z,5.61
2023-01-08T05:47:57.203Z,5.63
2023-01-08T05:48:57.362Z,5.66
2023-01-08T05:49:57.181Z,5.68
2023-01-08T05:50:57.241Z,5.67
2023-01-08T05:51:57.166Z,5.67
2023-01-08T05:52:57.282Z,5.66
2023-01-08T05:53:57.122Z,5.67
2023-01-08T05:54:57.275Z,5.69
2023-01-08T05:55:57.099Z,5.71
2023-01-08T05:56:57.250Z,5.71
2023-01-08T05:57:57.072Z,5.71
2023-01-08T05:58:57.192Z,5.71
2023-01-08T05:59:57.041Z,5.70
2023-01-08T06:01:01.373Z,5.70
2023-01-08T06:01:57.011Z,5.71
2023-01-08T06:02:57.253Z,5.72
2023-01-08T06:03:57.086Z,5.73
2023-01-08T06:04:59.196Z,5.74
2023-01-08T06:05:56.960Z,5.74
2023-01-08T06:06:57.091Z,5.75
2023-01-08T06:07:56.940Z,5.76
2023-01-08T06:08:56.950Z,5.77
2023-01-08T06:09:56.917Z,5.77
2023-01-08T06:10:57.001Z,5.78
2023-01-08T06:11:56.889Z,5.79
2023-01-08T06:12:56.993Z,5.79
2023-01-08T06:13:56.860Z,5.78
2023-01-08T06:14:56.889Z,5.78
2023-01-08T06:15:56.905Z,5.78
2023-01-08T06:16:58.060Z,5.78
2023-01-08T06:17:56.800Z,5.80
2023-01-08T06:18:56.889Z,5.82
2023-01-08T06:19:56.777Z,5.85
2023-01-08T06:20:56.829Z,5.86
2023-01-08T06:21:56.749Z,5.88
2023-01-08T06:22:57.838Z,5.89
2023-01-08T06:23:56.729Z,5.92
2023-01-08T06:24:56.902Z,5.94
2023-01-08T06:25:56.697Z,5.96
2023-01-08T06:26:57.799Z,5.97
2023-01-08T06:27:56.676Z,5.98
2023-01-08T06:28:56.707Z,6.00
2023-01-08T06:29:56.655Z,6.02
2023-01-08T06:30:56.817Z,6.02
2023-01-08T06:31:56.648Z,5.99
2023-01-08T06:32:56.719Z,5.97
2023-01-08T06:33:56.608Z,5.95
2023-01-08T06:34:56.729Z,5.94
2023-01-08T06:35:56.567Z,5.92
2023-01-08T06:36:56.615Z,5.91
2023-01-08T06:37:56.548Z,5.89
2023-01-08T06:38:56.666Z,5.88
2023-01-08T06:39:56.518Z,5.86
2023-01-08T06:40:56.662Z,5.84
2023-01-08T06:41:56.488Z,5.83
2023-01-08T06:42:56.641Z,5.83
2023-01-08T06:43:56.459Z,5.83
2023-01-08T06:44:58.699Z,5.82
2023-01-08T06:45:56.436Z,5.82
2023-01-08T06:46:57.557Z,5.83
2023-01-08T06:47:56.416Z,5.83
2023-01-08T06:48:56.525Z,5.82
2023-01-08T06:49:56.387Z,5.80
2023-01-08T06:52:06.826Z,5.26
2023-01-08T06:53:05.655Z,5.27
2023-01-08T06:54:05.766Z,5.49
2023-01-08T06:55:05.620Z,5.62
2023-01-08T06:56:06.778Z,5.69
2023-01-08T06:57:05.597Z,5.73
2023-01-08T06:58:05.791Z,5.75
2023-01-08T06:59:05.571Z,5.75
2023-01-08T07:00:05.673Z,5.76
2023-01-08T07:01:05.587Z,5.76
2023-01-08T07:02:06.772Z,5.78
2023-01-08T07:03:05.656Z,5.79
2023-01-08T07:04:05.587Z,5.79
2023-01-08T07:05:05.485Z,5.79
2023-01-08T07:06:05.679Z,5.80
2023-01-08T07:07:05.463Z,5.81
2023-01-08T07:08:26.547Z,5.81
2023-01-08T07:09:05.435Z,5.80
2023-01-08T07:10:05.425Z,5.80
2023-01-08T07:11:05.574Z,5.78
2023-01-08T07:12:05.414Z,5.79
2023-01-08T07:13:05.517Z,5.79
2023-01-08T07:14:05.373Z,5.77
2023-01-08T07:15:26.414Z,5.75
2023-01-08T07:16:05.390Z,5.73
2023-01-08T07:17:05.473Z,5.71
2023-01-08T07:18:05.345Z,5.71
2023-01-08T07:19:06.435Z,5.72
2023-01-08T07:20:05.296Z,5.73
2023-01-08T07:21:05.438Z,5.73
2023-01-08T07:22:06.465Z,5.73
2023-01-08T07:23:05.284Z,5.73
2023-01-08T07:24:05.272Z,5.75
2023-01-08T07:25:07.391Z,5.75
2023-01-08T07:26:05.214Z,5.79
2023-01-08T07:27:05.358Z,5.82
2023-01-08T07:28:05.176Z,5.82
2023-01-08T07:29:05.294Z,5.83
2023-01-08T07:30:05.184Z,5.85
2023-01-08T07:31:05.307Z,5.89
2023-01-08T07:32:05.134Z,5.91
2023-01-08T07:33:05.144Z,5.90
2023-01-08T07:34:05.109Z,5.88
2023-01-08T07:35:05.161Z,5.89
2023-01-08T07:36:05.104Z,5.93
2023-01-08T07:37:05.174Z,5.97
2023-01-08T07:38:05.059Z,5.99
2023-01-08T07:39:05.089Z,6.01
2023-01-08T07:40:05.038Z,6.02
2023-01-08T07:41:05.093Z,6.02
2023-01-08T07:42:05.017Z,6.02
2023-01-08T07:43:05.007Z,6.03
2023-01-08T07:44:04.971Z,6.02
2023-01-08T07:45:05.023Z,6.00
2023-01-08T07:46:05.010Z,6.00
2023-01-08T07:47:05.037Z,5.99
2023-01-08T07:48:04.982Z,5.99
2023-01-08T07:49:04.960Z,5.98
2023-01-08T07:50:05.653Z,5.99
2023-01-08T07:51:05.001Z,6.00
2023-01-08T07:52:04.890Z,6.00
2023-01-08T07:53:04.875Z,5.98
2023-01-08T07:54:04.842Z,5.97
2023-01-08T07:55:04.926Z,5.95
2023-01-08T07:56:04.802Z,5.93
2023-01-08T07:57:04.921Z,5.91
2023-01-08T07:58:04.793Z,5.90
2023-01-08T07:59:04.811Z,5.91
2023-01-08T08:00:04.951Z,5.96
2023-01-08T08:01:06.985Z,6.00
2023-01-08T08:02:04.825Z,6.04
2023-01-08T08:03:04.833Z,6.06
2023-01-08T08:04:05.148Z,6.06
2023-01-08T08:05:04.754Z,6.04
2023-01-08T08:06:04.702Z,6.02
2023-01-08T08:07:04.989Z,6.02
2023-01-08T08:08:07.869Z,6.00
2023-01-08T08:09:04.640Z,5.99
2023-01-08T08:10:04.754Z,6.03
2023-01-08T08:11:05.400Z,6.05
2023-01-08T08:12:04.650Z,6.06
2023-01-08T08:13:04.600Z,6.06
2023-01-08T08:14:04.620Z,6.06
2023-01-08T08:15:04.575Z,6.05
2023-01-08T08:16:04.718Z,6.06
2023-01-08T08:17:04.540Z,6.06
2023-01-08T08:18:04.619Z,6.05
2023-01-08T08:19:04.528Z,6.05
2023-01-08T08:20:04.562Z,6.05
2023-01-08T08:21:04.482Z,6.03
2023-01-08T08:22:07.395Z,6.03
2023-01-08T08:23:04.469Z,6.02
2023-01-08T08:24:05.580Z,6.02
2023-01-08T08:25:04.426Z,6.02
2023-01-08T08:26:04.498Z,6.02
2023-01-08T08:27:04.408Z,6.01
2023-01-08T08:28:04.425Z,6.01
2023-01-08T08:29:04.388Z,5.99
2023-01-08T08:30:04.489Z,6.00
2023-01-08T08:31:04.442Z,6.00
2023-01-08T08:32:04.452Z,6.00
2023-01-08T08:33:04.328Z,5.99
2023-01-08T08:34:04.356Z,5.99
2023-01-08T08:35:04.296Z,6.00
2023-01-08T08:36:05.392Z,5.99
2023-01-08T08:37:04.280Z,5.97
2023-01-08T08:38:04.295Z,5.97
2023-01-08T08:39:04.241Z,5.98
2023-01-08T08:40:04.307Z,6.00
2023-01-08T08:41:04.218Z,6.01
2023-01-08T08:42:04.262Z,6.03
2023-01-08T08:43:04.183Z,6.04
2023-01-08T08:44:04.247Z,6.04
2023-01-08T08:45:04.165Z,6.03
2023-01-08T08:46:04.237Z,6.04
2023-01-08T08:47:04.139Z,6.03
2023-01-08T08:48:04.209Z,6.03
2023-01-08T08:49:04.115Z,6.04
2023-01-08T08:50:04.180Z,6.05
2023-01-08T08:51:04.078Z,6.06
2023-01-08T08:52:04.187Z,6.06
2023-01-08T08:53:04.058Z,6.05
2023-01-08T08:54:04.139Z,6.07
2023-01-08T08:55:04.027Z,6.08
2023-01-08T08:56:05.131Z,6.09
2023-01-08T08:57:04.000Z,6.08
2023-01-08T08:58:04.016Z,6.06
2023-01-08T08:59:03.967Z,6.04
2023-01-08T09:00:04.376Z,6.03
2023-01-08T09:01:03.964Z,6.03
2023-01-08T09:02:04.230Z,6.03
2023-01-08T09:03:04.052Z,6.04
2023-01-08T09:04:04.013Z,6.05
2023-01-08T09:05:03.898Z,6.05
2023-01-08T09:06:05.016Z,6.05
2023-01-08T09:07:03.867Z,6.05
2023-01-08T09:08:24.956Z,6.05
2023-01-08T09:09:03.847Z,6.04
2023-01-08T09:10:25.047Z,6.04
2023-01-08T09:11:03.809Z,6.06
2023-01-08T09:12:03.899Z,6.07
2023-01-08T09:13:03.787Z,6.08
2023-01-08T09:14:03.878Z,6.08
2023-01-08T09:15:03.975Z,6.07
2023-01-08T09:16:03.966Z,6.07
2023-01-08T09:17:03.735Z,6.07
2023-01-08T09:18:04.938Z,6.08
2023-01-08T09:19:03.706Z,6.09
2023-01-08T09:20:03.786Z,6.08
2023-01-08T09:21:03.688Z,6.07
2023-01-08T09:22:03.838Z,6.07
2023-01-08T09:23:03.675Z,6.06
2023-01-08T09:24:05.776Z,6.06
2023-01-08T09:25:03.644Z,6.06
2023-01-08T09:26:03.705Z,6.07
2023-01-08T09:27:03.631Z,6.07
2023-01-08T09:28:03.632Z,6.07
2023-01-08T09:29:03.575Z,6.07
2023-01-08T09:30:04.634Z,6.06
2023-01-08T09:31:03.649Z,6.05
2023-01-08T09:32:03.704Z,6.04
2023-01-08T09:33:03.534Z,6.03
2023-01-08T09:34:03.595Z,6.02
2023-01-08T09:35:03.500Z,6.01
2023-01-08T09:36:03.640Z,6.00
2023-01-08T09:37:03.483Z,6.00
2023-01-08T09:38:03.513Z,6.00
2023-01-08T09:39:03.454Z,6.00
2023-01-08T09:40:03.597Z,6.02
2023-01-08T09:41:03.414Z,6.04
2023-01-08T09:42:03.474Z,6.05
2023-01-08T09:43:03.388Z,6.05
2023-01-08T09:44:03.461Z,6.05
2023-01-08T09:45:03.359Z,6.04
2023-01-08T09:46:03.553Z,6.04
2023-01-08T09:47:03.360Z,6.04
2023-01-08T09:48:03.434Z,6.05
2023-01-08T09:49:03.344Z,6.06
2023-01-08T09:50:03.413Z,6.09
2023-01-08T09:51:03.282Z,6.11
2023-01-08T09:52:04.375Z,6.12
2023-01-08T09:53:07.229Z,6.13
2023-01-08T09:54:03.404Z,6.14
2023-01-08T09:55:03.370Z,6.14
2023-01-08T09:56:11.040Z,6.14
2023-01-08T09:57:04.196Z,6.14
2023-01-08T09:58:03.590Z,6.16
2023-01-08T09:59:03.173Z,6.18
2023-01-08T10:00:03.292Z,6.19
2023-01-08T10:01:03.252Z,6.20
2023-01-08T10:02:03.337Z,6.21
2023-01-08T10:03:03.207Z,6.22
2023-01-08T10:04:05.261Z,6.24
2023-01-08T10:05:03.113Z,6.24
2023-01-08T10:06:04.153Z,6.24
2023-01-08T10:07:03.092Z,6.28
2023-01-08T10:08:03.080Z,6.33
2023-01-08T10:09:03.958Z,6.36
2023-01-08T10:10:03.101Z,6.36
2023-01-08T10:11:03.013Z,6.36
2023-01-08T10:12:03.078Z,6.35
2023-01-08T10:13:02.974Z,6.33
2023-01-08T10:14:03.040Z,6.33
2023-01-08T10:15:02.961Z,6.30
2023-01-08T10:16:03.079Z,6.27
2023-01-08T10:17:02.934Z,6.26
2023-01-08T10:18:03.049Z,6.26
2023-01-08T10:19:02.911Z,6.28
2023-01-08T10:20:03.019Z,6.28
2023-01-08T10:21:02.882Z,6.27
2023-01-08T10:22:02.903Z,6.27
2023-01-08T10:23:02.846Z,6.27
2023-01-08T10:24:02.951Z,6.29
2023-01-08T10:25:02.822Z,6.31
2023-01-08T10:26:02.916Z,6.34
2023-01-08T10:27:02.801Z,6.36
2023-01-08T10:28:02.834Z,6.38
2023-01-08T10:29:02.772Z,6.41
2023-01-08T10:30:02.793Z,6.44
2023-01-08T10:31:02.756Z,6.44
2023-01-08T10:32:02.750Z,6.48
2023-01-08T10:33:02.713Z,6.48
2023-01-08T10:34:02.778Z,6.49
2023-01-08T10:35:02.719Z,6.50
2023-01-08T10:36:02.730Z,6.49
2023-01-08T10:37:02.668Z,6.47
2023-01-08T10:38:02.692Z,6.46
2023-01-08T10:39:02.631Z,6.47
2023-01-08T10:40:03.806Z,6.50
2023-01-08T10:41:02.615Z,6.54
2023-01-08T10:42:04.754Z,6.58
2023-01-08T10:43:02.588Z,6.59
2023-01-08T10:44:02.640Z,6.61
2023-01-08T10:45:02.588Z,6.63
2023-01-08T10:46:02.730Z,6.61
2023-01-08T10:47:02.520Z,6.60
2023-01-08T10:48:02.620Z,6.58
2023-01-08T10:49:02.508Z,6.58
2023-01-08T10:50:02.585Z,6.58
2023-01-08T10:51:02.484Z,6.59
2023-01-08T10:52:02.518Z,6.59
2023-01-08T10:53:02.453Z,6.63
2023-01-08T10:54:02.552Z,6.67
2023-01-08T10:55:02.429Z,6.69
2023-01-08T10:56:02.548Z,6.69
2023-01-08T10:57:02.732Z,6.75
2023-01-08T10:58:02.428Z,6.93
2023-01-08T10:59:02.390Z,7.03
2023-01-08T11:00:02.510Z,7.08
2023-01-08T11:01:02.372Z,7.06
2023-01-08T11:02:02.441Z,7.01
2023-01-08T11:03:02.326Z,6.96
2023-01-08T11:04:02.381Z,6.89
2023-01-08T11:05:02.290Z,6.83
2023-01-08T11:06:02.329Z,6.78
2023-01-08T11:07:02.258Z,6.75
2023-01-08T11:08:02.333Z,6.71
2023-01-08T11:09:02.239Z,6.68
2023-01-08T11:10:02.329Z,6.65
2023-01-08T11:11:02.252Z,6.64
2023-01-08T11:12:02.303Z,6.64
2023-01-08T11:13:02.178Z,6.66
2023-01-08T11:14:02.258Z,6.65
2023-01-08T11:15:02.167Z,6.67
2023-01-08T11:16:02.268Z,6.69
2023-01-08T11:17:02.135Z,6.74
2023-01-08T11:18:02.217Z,6.75
2023-01-08T11:19:02.109Z,6.76
2023-01-08T11:20:02.181Z,6.75
2023-01-08T11:21:02.088Z,6.72
2023-01-08T11:22:02.101Z,6.68
2023-01-08T11:23:02.050Z,6.64
2023-01-08T11:24:02.162Z,6.63
2023-01-08T11:25:02.022Z,6.63
2023-01-08T11:26:02.134Z,6.63
2023-01-08T11:27:02.001Z,6.64
2023-01-08T11:28:02.237Z,6.63
2023-01-08T11:29:01.964Z,6.63
2023-01-08T11:30:02.023Z,6.63
2023-01-08T11:31:01.944Z,6.64
2023-01-08T11:32:01.979Z,6.66
2023-01-08T11:33:01.918Z,6.69
2023-01-08T11:34:01.978Z,6.72
2023-01-08T11:35:01.897Z,6.73
2023-01-08T11:36:01.940Z,6.74
2023-01-08T11:37:01.867Z,6.73
2023-01-08T11:38:01.998Z,6.75
2023-01-08T11:39:01.837Z,6.76
2023-01-08T11:40:01.921Z,6.78
2023-01-08T11:41:01.807Z,6.80
2023-01-08T11:42:01.888Z,6.81
2023-01-08T11:43:01.786Z,6.81
2023-01-08T11:44:01.849Z,6.81
2023-01-08T11:45:01.769Z,6.83
2023-01-08T11:46:01.791Z,6.86
2023-01-08T11:47:01.725Z,6.87
2023-01-08T11:48:01.827Z,6.91
2023-01-08T11:49:01.745Z,6.95
2023-01-08T11:50:02.736Z,6.98
2023-01-08T11:51:01.676Z,6.98
2023-01-08T11:52:01.701Z,6.97
2023-01-08T11:53:01.654Z,6.97
2023-01-08T11:54:01.756Z,6.97
2023-01-08T11:55:01.633Z,6.97
2023-01-08T11:56:01.672Z,7.00
2023-01-08T11:57:01.677Z,7.02
2023-01-08T11:58:01.638Z,7.04
2023-01-08T11:59:01.847Z,7.04
2023-01-08T12:00:01.723Z,7.03
2023-01-08T12:01:01.558Z,7.02
2023-01-08T12:02:01.902Z,7.01
2023-01-08T12:03:01.563Z,7.04
2023-01-08T12:04:01.804Z,7.07
2023-01-08T12:05:01.529Z,7.09
2023-01-08T12:06:01.555Z,7.07
2023-01-08T12:07:01.514Z,7.05
2023-01-08T12:08:01.515Z,7.04
2023-01-08T12:09:01.439Z,7.05
2023-01-08T12:10:01.553Z,7.05
2023-01-08T12:11:01.415Z,7.05
2023-01-08T12:12:01.543Z,7.06
2023-01-08T12:13:01.594Z,7.06
2023-01-08T12:14:01.884Z,7.05
2023-01-08T12:15:01.359Z,7.03
2023-01-08T12:16:01.378Z,7.02
2023-01-08T12:17:01.326Z,7.02
2023-01-08T12:18:01.426Z,7.00
2023-01-08T12:19:01.315Z,7.00
2023-01-08T12:20:01.395Z,7.02
2023-01-08T12:21:01.274Z,7.04
2023-01-08T12:22:01.305Z,7.05
2023-01-08T12:23:01.247Z,7.06
2023-01-08T12:24:01.274Z,7.06
2023-01-08T12:25:01.232Z,7.06
2023-01-08T12:26:01.228Z,7.05
2023-01-08T12:27:01.393Z,7.05
2023-01-08T12:28:01.251Z,7.04
2023-01-08T12:29:01.169Z,7.05
2023-01-08T12:30:01.207Z,7.04
2023-01-08T12:31:01.135Z,7.01
2023-01-08T12:32:03.230Z,6.99
2023-01-08T12:33:01.116Z,6.97
2023-01-08T12:34:01.189Z,6.96
2023-01-08T12:35:01.088Z,6.97
2023-01-08T12:36:01.154Z,6.98
2023-01-08T12:37:01.064Z,7.00
2023-01-08T12:38:01.166Z,7.00
2023-01-08T12:39:01.034Z,7.02
2023-01-08T12:40:01.143Z,7.02
2023-01-08T12:41:01.037Z,6.99
2023-01-08T12:42:01.087Z,6.96
2023-01-08T12:43:02.253Z,6.93
2023-01-08T12:44:01.057Z,6.92
2023-01-08T12:45:00.961Z,6.91
2023-01-08T12:46:01.002Z,6.91
2023-01-08T12:47:00.927Z,6.90
2023-01-08T12:48:01.041Z,6.89
2023-01-08T12:49:00.910Z,6.88
2023-01-08T12:50:00.998Z,6.88
2023-01-08T12:51:00.872Z,6.87
2023-01-08T12:52:00.916Z,6.87
2023-01-08T12:53:00.852Z,6.89
2023-01-08T12:54:00.873Z,6.90
2023-01-08T12:55:00.825Z,6.90
2023-01-08T12:56:00.843Z,6.89
2023-01-08T12:57:00.794Z,6.90
2023-01-08T12:58:00.854Z,6.90
2023-01-08T12:59:00.777Z,6.91
2023-01-08T13:00:02.894Z,6.91
2023-01-08T13:01:00.793Z,6.93
2023-01-08T13:02:01.878Z,6.95
2023-01-08T13:03:00.756Z,6.98
2023-01-08T13:04:00.793Z,7.03
2023-01-08T13:05:00.683Z,7.05
2023-01-08T13:06:00.754Z,7.08
2023-01-08T13:07:00.655Z,7.08
2023-01-08T13:08:00.715Z,7.10
2023-01-08T13:09:01.848Z,7.10
2023-01-08T13:10:00.735Z,7.09
2023-01-08T13:11:00.601Z,7.09
2023-01-08T13:12:00.696Z,7.07
2023-01-08T13:13:00.583Z,7.05
2023-01-08T13:14:00.661Z,7.01
2023-01-08T13:15:00.556Z,6.99
2023-01-08T13:16:00.570Z,7.00
2023-01-08T13:17:00.520Z,7.00
2023-01-08T13:18:00.632Z,6.99
2023-01-08T13:19:00.505Z,6.97